sensor_id;sensor_type;location;lat;lon;timestamp;pressure;altitude;pressure_sealevel;temperature;humidity
48652;BME280;34442;52.362;-1.302;2023-04-01T00:00:55;98594.31;;;9.93;100.00
48652;BME280;34442;52.362;-1.302;2023-04-01T00:03:22;98598.88;;;9.93;100.00
48652;BME280;34442;52.362;-1.302;2023-04-01T00:05:48;98598.13;;;9.98;100.00
48652;BME280;34442;52.362;-1.302;2023-04-01T00:08:18;98606.44;;;9.96;100.00
48652;BME280;34442;52.362;-1.302;2023-04-01T00:10:43;98610.88;;;9.90;100.00
48652;BME280;34442;52.362;-1.302;2023-04-01T00:13:09;98605.59;;;9.95;100.00
48652;BME280;34442;52.362;-1.302;2023-04-01T00:15:35;98606.91;;;9.93;100.00
48652;BME280;34442;52.362;-1.302;2023-04-01T00:18:00;98612.78;;;9.73;100.00
48652;BME280;34442;52.362;-1.302;2023-04-01T00:20:26;98615.31;;;9.80;100.00
48652;BME280;34442;52.362;-1.302;2023-04-01T00:22:51;98612.63;;;9.80;100.00
48652;BME280;34442;52.362;-1.302;2023-04-01T00:25:17;98622.13;;;9.70;100.00
48652;BME280;34442;52.362;-1.302;2023-04-01T00:27:43;98627.66;;;9.64;100.00
48652;BME280;34442;52.362;-1.302;2023-04-01T00:30:09;98635.22;;;9.67;100.00
48652;BME280;34442;52.362;-1.302;2023-04-01T00:32:35;98626.53;;;9.77;100.00
48652;BME280;34442;52.362;-1.302;2023-04-01T00:35:01;98640.69;;;9.72;100.00
48652;BME280;34442;52.362;-1.302;2023-04-01T00:37:27;98635.13;;;9.79;100.00
48652;BME280;34442;52.362;-1.302;2023-04-01T00:39:56;98637.81;;;9.79;100.00
48652;BME280;34442;52.362;-1.302;2023-04-01T00:42:22;98634.84;;;9.75;100.00
48652;BME280;34442;52.362;-1.302;2023-04-01T00:44:51;98643.19;;;9.79;100.00
48652;BME280;34442;52.362;-1.302;2023-04-01T00:47:17;98648.00;;;9.77;100.00
48652;BME280;34442;52.362;-1.302;2023-04-01T00:49:45;98647.09;;;9.71;100.00
48652;BME280;34442;52.362;-1.302;2023-04-01T00:52:14;98654.03;;;9.84;100.00
48652;BME280;34442;52.362;-1.302;2023-04-01T00:54:43;98655.56;;;9.80;100.00
48652;BME280;34442;52.362;-1.302;2023-04-01T00:57:12;98664.50;;;9.68;100.00
48652;BME280;34442;52.362;-1.302;2023-04-01T00:59:43;98665.50;;;9.79;100.00
48652;BME280;34442;52.362;-1.302;2023-04-01T01:02:12;98659.06;;;9.80;100.00
48652;BME280;34442;52.362;-1.302;2023-04-01T01:04:38;98666.13;;;9.69;100.00
48652;BME280;34442;52.362;-1.302;2023-04-01T01:36:50;98702.44;;;9.60;100.00
48652;BME280;34442;52.362;-1.302;2023-04-01T01:39:19;98698.63;;;9.56;100.00
48652;BME280;34442;52.362;-1.302;2023-04-01T01:41:47;98710.63;;;9.54;100.00
48652;BME280;34442;52.362;-1.302;2023-04-01T01:44:16;98711.03;;;9.45;100.00
48652;BME280;34442;52.362;-1.302;2023-04-01T01:46:42;98714.84;;;9.50;100.00
48652;BME280;34442;52.362;-1.302;2023-04-01T01:49:11;98711.75;;;9.41;100.00
48652;BME280;34442;52.362;-1.302;2023-04-01T01:51:38;98725.63;;;9.38;100.00
48652;BME280;34442;52.362;-1.302;2023-04-01T01:54:05;98728.03;;;9.23;100.00
48652;BME280;34442;52.362;-1.302;2023-04-01T01:56:32;98726.13;;;9.35;100.00
48652;BME280;34442;52.362;-1.302;2023-04-01T01:59:07;98725.31;;;9.34;100.00
48652;BME280;34442;52.362;-1.302;2023-04-01T02:01:37;98729.16;;;9.38;100.00
48652;BME280;34442;52.362;-1.302;2023-04-01T02:04:04;98724.59;;;9.39;100.00
48652;BME280;34442;52.362;-1.302;2023-04-01T02:06:32;98729.47;;;9.42;100.00
48652;BME280;34442;52.362;-1.302;2023-04-01T02:09:05;98735.34;;;9.39;100.00
48652;BME280;34442;52.362;-1.302;2023-04-01T02:14:21;98746.44;;;9.31;100.00
48652;BME280;34442;52.362;-1.302;2023-04-01T02:19:16;98760.44;;;9.21;100.00
48652;BME280;34442;52.362;-1.302;2023-04-01T02:21:49;98761.31;;;9.10;100.00
48652;BME280;34442;52.362;-1.302;2023-04-01T02:24:18;98756.75;;;9.10;100.00
48652;BME280;34442;52.362;-1.302;2023-04-01T02:26:46;98756.97;;;9.09;100.00
48652;BME280;34442;52.362;-1.302;2023-04-01T02:29:12;98757.94;;;9.03;100.00
48652;BME280;34442;52.362;-1.302;2023-04-01T02:31:38;98757.94;;;9.03;100.00
48652;BME280;34442;52.362;-1.302;2023-04-01T02:34:05;98768.75;;;9.08;100.00
48652;BME280;34442;52.362;-1.302;2023-04-01T02:36:31;98768.66;;;9.03;100.00
48652;BME280;34442;52.362;-1.302;2023-04-01T02:38:58;98768.31;;;8.87;100.00
48652;BME280;34442;52.362;-1.302;2023-04-01T02:41:27;98777.97;;;8.88;100.00
48652;BME280;34442;52.362;-1.302;2023-04-01T02:43:53;98773.81;;;8.81;100.00
48652;BME280;34442;52.362;-1.302;2023-04-01T02:46:18;98780.00;;;8.81;100.00
48652;BME280;34442;52.362;-1.302;2023-04-01T02:48:43;98784.03;;;8.95;100.00
48652;BME280;34442;52.362;-1.302;2023-04-01T02:51:09;98785.34;;;8.81;100.00
48652;BME280;34442;52.362;-1.302;2023-04-01T02:53:34;98783.69;;;8.92;100.00
48652;BME280;34442;52.362;-1.302;2023-04-01T02:56:00;98783.84;;;8.85;100.00
48652;BME280;34442;52.362;-1.302;2023-04-01T02:58:25;98787.22;;;8.81;100.00
48652;BME280;34442;52.362;-1.302;2023-04-01T03:00:50;98790.81;;;8.86;100.00
48652;BME280;34442;52.362;-1.302;2023-04-01T03:03:16;98795.13;;;8.76;100.00
48652;BME280;34442;52.362;-1.302;2023-04-01T03:05:41;98793.03;;;8.89;100.00
48652;BME280;34442;52.362;-1.302;2023-04-01T03:08:06;98802.09;;;8.88;100.00
48652;BME280;34442;52.362;-1.302;2023-04-01T03:10:32;98800.03;;;8.90;100.00
48652;BME280;34442;52.362;-1.302;2023-04-01T03:12:57;98806.19;;;8.91;100.00
48652;BME280;34442;52.362;-1.302;2023-04-01T03:15:22;98800.47;;;8.87;100.00
48652;BME280;34442;52.362;-1.302;2023-04-01T03:17:48;98810.38;;;8.87;100.00
48652;BME280;34442;52.362;-1.302;2023-04-01T03:20:13;98808.88;;;8.91;100.00
48652;BME280;34442;52.362;-1.302;2023-04-01T03:22:40;98811.56;;;8.91;100.00
48652;BME280;34442;52.362;-1.302;2023-04-01T03:25:06;98813.66;;;8.77;100.00
48652;BME280;34442;52.362;-1.302;2023-04-01T03:27:33;98816.81;;;8.74;100.00
48652;BME280;34442;52.362;-1.302;2023-04-01T03:29:59;98815.84;;;8.80;100.00
48652;BME280;34442;52.362;-1.302;2023-04-01T03:32:25;98817.97;;;8.90;100.00
48652;BME280;34442;52.362;-1.302;2023-04-01T03:34:50;98824.13;;;8.90;100.00
48652;BME280;34442;52.362;-1.302;2023-04-01T03:37:15;98820.84;;;9.12;100.00
48652;BME280;34442;52.362;-1.302;2023-04-01T03:39:41;98823.09;;;8.91;100.00
48652;BME280;34442;52.362;-1.302;2023-04-01T03:42:06;98831.81;;;8.87;100.00
48652;BME280;34442;52.362;-1.302;2023-04-01T03:44:35;98822.53;;;8.89;100.00
48652;BME280;34442;52.362;-1.302;2023-04-01T03:47:01;98826.34;;;8.93;100.00
48652;BME280;34442;52.362;-1.302;2023-04-01T03:49:26;98827.53;;;8.86;100.00
48652;BME280;34442;52.362;-1.302;2023-04-01T03:51:51;98833.06;;;9.19;100.00
48652;BME280;34442;52.362;-1.302;2023-04-01T03:54:17;98833.09;;;8.84;100.00
48652;BME280;34442;52.362;-1.302;2023-04-01T03:56:45;98840.56;;;8.82;100.00
48652;BME280;34442;52.362;-1.302;2023-04-01T03:59:11;98838.25;;;8.74;100.00
48652;BME280;34442;52.362;-1.302;2023-04-01T04:01:36;98848.59;;;8.82;100.00
48652;BME280;34442;52.362;-1.302;2023-04-01T04:04:02;98843.34;;;8.87;100.00
48652;BME280;34442;52.362;-1.302;2023-04-01T04:06:28;98842.66;;;8.80;100.00
48652;BME280;34442;52.362;-1.302;2023-04-01T04:08:54;98838.59;;;8.89;100.00
48652;BME280;34442;52.362;-1.302;2023-04-01T04:11:20;98848.59;;;8.59;100.00
48652;BME280;34442;52.362;-1.302;2023-04-01T04:13:47;98851.03;;;8.72;100.00
48652;BME280;34442;52.362;-1.302;2023-04-01T04:16:16;98851.63;;;8.74;100.00
48652;BME280;34442;52.362;-1.302;2023-04-01T04:18:42;98865.28;;;8.73;100.00
48652;BME280;34442;52.362;-1.302;2023-04-01T04:21:12;98861.28;;;8.75;100.00
48652;BME280;34442;52.362;-1.302;2023-04-01T04:23:37;98864.09;;;8.80;100.00
48652;BME280;34442;52.362;-1.302;2023-04-01T04:26:05;98865.03;;;8.74;100.00
48652;BME280;34442;52.362;-1.302;2023-04-01T04:28:31;98868.78;;;8.85;100.00
48652;BME280;34442;52.362;-1.302;2023-04-01T04:30:57;98872.84;;;8.87;100.00
48652;BME280;34442;52.362;-1.302;2023-04-01T04:33:23;98881.94;;;8.86;100.00
48652;BME280;34442;52.362;-1.302;2023-04-01T04:35:50;98876.31;;;8.88;100.00
48652;BME280;34442;52.362;-1.302;2023-04-01T04:38:16;98878.19;;;8.76;100.00
48652;BME280;34442;52.362;-1.302;2023-04-01T04:40:42;98873.88;;;8.75;100.00
48652;BME280;34442;52.362;-1.302;2023-04-01T04:43:12;98897.41;;;8.84;100.00
48652;BME280;34442;52.362;-1.302;2023-04-01T04:45:38;98891.81;;;8.74;100.00
48652;BME280;34442;52.362;-1.302;2023-04-01T04:48:04;98888.56;;;8.60;100.00
48652;BME280;34442;52.362;-1.302;2023-04-01T04:50:30;98898.78;;;8.63;100.00
48652;BME280;34442;52.362;-1.302;2023-04-01T04:52:56;98900.41;;;8.53;100.00
48652;BME280;34442;52.362;-1.302;2023-04-01T04:55:21;98900.06;;;8.49;100.00
48652;BME280;34442;52.362;-1.302;2023-04-01T04:57:47;98898.88;;;8.45;100.00
48652;BME280;34442;52.362;-1.302;2023-04-01T05:00:12;98900.88;;;8.50;100.00
48652;BME280;34442;52.362;-1.302;2023-04-01T05:02:38;98910.53;;;8.51;100.00
48652;BME280;34442;52.362;-1.302;2023-04-01T05:05:04;98913.00;;;8.64;100.00
48652;BME280;34442;52.362;-1.302;2023-04-01T05:07:30;98920.13;;;8.70;100.00
48652;BME280;34442;52.362;-1.302;2023-04-01T05:09:55;98909.63;;;8.80;100.00
48652;BME280;34442;52.362;-1.302;2023-04-01T05:12:21;98919.38;;;8.51;100.00
48652;BME280;34442;52.362;-1.302;2023-04-01T05:14:49;98926.56;;;8.39;100.00
48652;BME280;34442;52.362;-1.302;2023-04-01T05:17:14;98926.28;;;8.29;100.00
48652;BME280;34442;52.362;-1.302;2023-04-01T05:19:40;98934.94;;;8.42;100.00
48652;BME280;34442;52.362;-1.302;2023-04-01T05:22:05;98938.53;;;8.36;100.00
48652;BME280;34442;52.362;-1.302;2023-04-01T05:24:31;98947.16;;;8.38;100.00
48652;BME280;34442;52.362;-1.302;2023-04-01T05:26:58;98951.19;;;8.29;100.00
48652;BME280;34442;52.362;-1.302;2023-04-01T05:29:25;98953.50;;;8.44;100.00
48652;BME280;34442;52.362;-1.302;2023-04-01T05:31:51;98960.03;;;8.48;100.00
48652;BME280;34442;52.362;-1.302;2023-04-01T05:34:16;98960.50;;;8.57;100.00
48652;BME280;34442;52.362;-1.302;2023-04-01T05:36:42;98960.72;;;8.43;100.00
48652;BME280;34442;52.362;-1.302;2023-04-01T05:39:08;98972.94;;;8.51;100.00
48652;BME280;34442;52.362;-1.302;2023-04-01T05:41:37;98967.97;;;8.36;100.00
48652;BME280;34442;52.362;-1.302;2023-04-01T05:44:04;98974.00;;;8.32;100.00
48652;BME280;34442;52.362;-1.302;2023-04-01T05:46:30;98972.16;;;8.32;100.00
48652;BME280;34442;52.362;-1.302;2023-04-01T05:48:56;98979.22;;;8.27;100.00
48652;BME280;34442;52.362;-1.302;2023-04-01T05:51:21;98978.47;;;8.38;100.00
48652;BME280;34442;52.362;-1.302;2023-04-01T05:53:47;98984.94;;;8.49;100.00
48652;BME280;34442;52.362;-1.302;2023-04-01T05:56:12;98985.69;;;8.37;100.00
48652;BME280;34442;52.362;-1.302;2023-04-01T05:58:38;98992.47;;;8.40;100.00
48652;BME280;34442;52.362;-1.302;2023-04-01T06:01:06;98997.59;;;8.23;100.00
48652;BME280;34442;52.362;-1.302;2023-04-01T06:03:32;98992.69;;;8.38;100.00
48652;BME280;34442;52.362;-1.302;2023-04-01T06:05:58;98998.78;;;8.45;100.00
48652;BME280;34442;52.362;-1.302;2023-04-01T06:08:24;99002.41;;;8.33;100.00
48652;BME280;34442;52.362;-1.302;2023-04-01T06:10:58;99001.22;;;8.29;100.00
48652;BME280;34442;52.362;-1.302;2023-04-01T06:13:37;99009.41;;;8.34;100.00
48652;BME280;34442;52.362;-1.302;2023-04-01T06:18:59;99008.66;;;8.45;100.00
48652;BME280;34442;52.362;-1.302;2023-04-01T06:24:25;99013.22;;;8.44;100.00
48652;BME280;34442;52.362;-1.302;2023-04-01T06:35:02;99018.47;;;8.51;100.00
48652;BME280;34442;52.362;-1.302;2023-04-01T06:40:49;99013.97;;;8.63;100.00
48652;BME280;34442;52.362;-1.302;2023-04-01T06:46:24;99020.47;;;8.56;100.00
48652;BME280;34442;52.362;-1.302;2023-04-01T06:54:30;99038.88;;;8.52;100.00
48652;BME280;34442;52.362;-1.302;2023-04-01T06:57:00;99048.22;;;8.61;100.00
48652;BME280;34442;52.362;-1.302;2023-04-01T06:59:30;99048.72;;;8.70;100.00
48652;BME280;34442;52.362;-1.302;2023-04-01T07:04:42;99054.63;;;8.42;100.00
48652;BME280;34442;52.362;-1.302;2023-04-01T07:07:37;99057.63;;;8.52;100.00
48652;BME280;34442;52.362;-1.302;2023-04-01T07:12:55;99061.88;;;8.41;100.00
48652;BME280;34442;52.362;-1.302;2023-04-01T07:15:40;99068.09;;;8.35;100.00
48652;BME280;34442;52.362;-1.302;2023-04-01T07:18:21;99070.50;;;8.43;100.00
48652;BME280;34442;52.362;-1.302;2023-04-01T07:20:49;99068.09;;;8.35;100.00
48652;BME280;34442;52.362;-1.302;2023-04-01T07:23:21;99074.81;;;8.44;100.00
48652;BME280;34442;52.362;-1.302;2023-04-01T07:25:51;99077.75;;;8.36;100.00
48652;BME280;34442;52.362;-1.302;2023-04-01T07:28:18;99080.31;;;8.31;100.00
48652;BME280;34442;52.362;-1.302;2023-04-01T07:33:44;99096.56;;;8.30;100.00
48652;BME280;34442;52.362;-1.302;2023-04-01T07:36:26;99096.38;;;8.31;100.00
48652;BME280;34442;52.362;-1.302;2023-04-01T07:39:16;99101.69;;;8.13;100.00
48652;BME280;34442;52.362;-1.302;2023-04-01T07:44:39;99102.06;;;8.35;100.00
48652;BME280;34442;52.362;-1.302;2023-04-01T07:52:25;99130.38;;;8.49;100.00
48652;BME280;34442;52.362;-1.302;2023-04-01T07:55:09;99128.75;;;8.48;100.00
48652;BME280;34442;52.362;-1.302;2023-04-01T08:00:27;99130.06;;;8.57;100.00
48652;BME280;34442;52.362;-1.302;2023-04-01T08:05:59;99142.28;;;8.53;100.00
48652;BME280;34442;52.362;-1.302;2023-04-01T08:11:41;99146.34;;;8.74;100.00
48652;BME280;34442;52.362;-1.302;2023-04-01T08:14:21;99146.91;;;8.94;100.00
48652;BME280;34442;52.362;-1.302;2023-04-01T08:19:51;99163.94;;;9.72;100.00
48652;BME280;34442;52.362;-1.302;2023-04-01T08:22:38;99168.16;;;9.80;100.00
48652;BME280;34442;52.362;-1.302;2023-04-01T08:25:05;99167.66;;;9.59;100.00
48652;BME280;34442;52.362;-1.302;2023-04-01T08:27:39;99170.03;;;9.37;100.00
48652;BME280;34442;52.362;-1.302;2023-04-01T08:32:44;99181.56;;;9.26;100.00
48652;BME280;34442;52.362;-1.302;2023-04-01T08:35:39;99185.75;;;9.22;100.00
48652;BME280;34442;52.362;-1.302;2023-04-01T08:38:43;99191.56;;;9.19;100.00
48652;BME280;34442;52.362;-1.302;2023-04-01T08:44:39;99200.97;;;9.10;100.00
48652;BME280;34442;52.362;-1.302;2023-04-01T08:50:26;99206.72;;;9.25;100.00
48652;BME280;34442;52.362;-1.302;2023-04-01T09:01:14;99220.88;;;9.32;100.00
48652;BME280;34442;52.362;-1.302;2023-04-01T09:06:49;99228.66;;;9.34;100.00
48652;BME280;34442;52.362;-1.302;2023-04-01T09:15:12;99244.94;;;9.20;100.00
48652;BME280;34442;52.362;-1.302;2023-04-01T09:20:49;99250.78;;;8.99;100.00
48652;BME280;34442;52.362;-1.302;2023-04-01T09:26:38;99265.50;;;9.27;100.00
48652;BME280;34442;52.362;-1.302;2023-04-01T09:31:49;99258.13;;;9.22;100.00
48652;BME280;34442;52.362;-1.302;2023-04-01T09:34:24;99268.19;;;9.27;100.00
48652;BME280;34442;52.362;-1.302;2023-04-01T09:40:12;99263.97;;;9.49;100.00
48652;BME280;34442;52.362;-1.302;2023-04-01T10:00:14;99279.28;;;9.90;100.00
48652;BME280;34442;52.362;-1.302;2023-04-01T10:17:26;99306.38;;;9.70;100.00
48652;BME280;34442;52.362;-1.302;2023-04-01T10:33:37;99325.06;;;10.37;100.00
48652;BME280;34442;52.362;-1.302;2023-04-01T10:36:43;99331.47;;;10.25;100.00
48652;BME280;34442;52.362;-1.302;2023-04-01T10:52:54;99358.38;;;10.48;100.00
48652;BME280;34442;52.362;-1.302;2023-04-01T10:55:44;99371.44;;;10.44;100.00
48652;BME280;34442;52.362;-1.302;2023-04-01T11:18:12;99383.06;;;11.27;100.00
48652;BME280;34442;52.362;-1.302;2023-04-01T11:31:57;99399.91;;;10.76;100.00
48652;BME280;34442;52.362;-1.302;2023-04-01T11:37:40;99411.38;;;10.95;100.00
48652;BME280;34442;52.362;-1.302;2023-04-01T11:40:29;99416.50;;;10.84;100.00
48652;BME280;34442;52.362;-1.302;2023-04-01T11:43:13;99418.81;;;10.69;100.00
48652;BME280;34442;52.362;-1.302;2023-04-01T11:45:50;99417.84;;;10.52;100.00
48652;BME280;34442;52.362;-1.302;2023-04-01T11:48:40;99431.72;;;10.49;100.00
48652;BME280;34442;52.362;-1.302;2023-04-01T11:54:03;99438.44;;;10.28;100.00
48652;BME280;34442;52.362;-1.302;2023-04-01T11:56:52;99456.25;;;10.22;100.00
48652;BME280;34442;52.362;-1.302;2023-04-01T12:10:18;99468.03;;;10.81;100.00
48652;BME280;34442;52.362;-1.302;2023-04-01T12:18:12;99479.81;;;10.68;100.00
48652;BME280;34442;52.362;-1.302;2023-04-01T12:26:19;99499.13;;;10.77;100.00
48652;BME280;34442;52.362;-1.302;2023-04-01T12:29:03;99490.06;;;10.60;100.00
48652;BME280;34442;52.362;-1.302;2023-04-01T12:31:51;99500.09;;;10.83;100.00
48652;BME280;34442;52.362;-1.302;2023-04-01T12:37:19;99511.41;;;10.43;100.00
48652;BME280;34442;52.362;-1.302;2023-04-01T12:45:42;99525.22;;;10.28;100.00
48652;BME280;34442;52.362;-1.302;2023-04-01T12:59:49;99541.31;;;10.77;100.00
48652;BME280;34442;52.362;-1.302;2023-04-01T13:10:21;99548.94;;;10.31;100.00
48652;BME280;34442;52.362;-1.302;2023-04-01T13:15:33;99554.00;;;10.21;100.00
48652;BME280;34442;52.362;-1.302;2023-04-01T13:26:41;99574.22;;;10.60;100.00
48652;BME280;34442;52.362;-1.302;2023-04-01T13:29:15;99573.25;;;10.55;100.00
48652;BME280;34442;52.362;-1.302;2023-04-01T13:43:41;99596.72;;;11.50;100.00
48652;BME280;34442;52.362;-1.302;2023-04-01T14:10:19;99613.25;;;11.23;100.00
48652;BME280;34442;52.362;-1.302;2023-04-01T14:21:56;99625.53;;;11.19;100.00
48652;BME280;34442;52.362;-1.302;2023-04-01T14:24:42;99636.38;;;11.42;100.00
48652;BME280;34442;52.362;-1.302;2023-04-01T14:27:37;99634.03;;;11.46;100.00
48652;BME280;34442;52.362;-1.302;2023-04-01T14:30:14;99649.22;;;11.29;100.00
48652;BME280;34442;52.362;-1.302;2023-04-01T14:35:41;99649.34;;;11.04;100.00
48652;BME280;34442;52.362;-1.302;2023-04-01T14:48:57;99673.13;;;11.49;100.00
48652;BME280;34442;52.362;-1.302;2023-04-01T14:51:36;99676.53;;;11.44;100.00
48652;BME280;34442;52.362;-1.302;2023-04-01T14:54:33;99686.00;;;11.47;100.00
48652;BME280;34442;52.362;-1.302;2023-04-01T14:57:16;99687.78;;;11.23;100.00
48652;BME280;34442;52.362;-1.302;2023-04-01T14:59:54;99700.16;;;10.93;100.00
48652;BME280;34442;52.362;-1.302;2023-04-01T15:02:37;99692.06;;;11.12;100.00
48652;BME280;34442;52.362;-1.302;2023-04-01T15:05:30;99704.03;;;11.16;100.00
48652;BME280;34442;52.362;-1.302;2023-04-01T15:08:32;99712.28;;;11.03;100.00
48652;BME280;34442;52.362;-1.302;2023-04-01T15:11:17;99714.47;;;11.06;100.00
48652;BME280;34442;52.362;-1.302;2023-04-01T15:14:01;99711.03;;;11.17;100.00
48652;BME280;34442;52.362;-1.302;2023-04-01T15:16:45;99719.34;;;11.15;100.00
48652;BME280;34442;52.362;-1.302;2023-04-01T15:30:16;99738.19;;;10.97;100.00
48652;BME280;34442;52.362;-1.302;2023-04-01T15:40:53;99752.69;;;10.96;100.00
48652;BME280;34442;52.362;-1.302;2023-04-01T15:43:44;99758.28;;;11.13;100.00
48652;BME280;34442;52.362;-1.302;2023-04-01T15:46:41;99757.44;;;11.12;100.00
48652;BME280;34442;52.362;-1.302;2023-04-01T15:49:35;99768.97;;;11.20;100.00
48652;BME280;34442;52.362;-1.302;2023-04-01T16:00:31;99785.78;;;10.97;100.00
48652;BME280;34442;52.362;-1.302;2023-04-01T16:03:30;99793.91;;;11.27;100.00
48652;BME280;34442;52.362;-1.302;2023-04-01T16:06:36;99788.00;;;11.18;100.00
48652;BME280;34442;52.362;-1.302;2023-04-01T16:14:55;99804.88;;;10.88;100.00
48652;BME280;34442;52.362;-1.302;2023-04-01T16:20:00;99812.38;;;10.86;100.00
48652;BME280;34442;52.362;-1.302;2023-04-01T16:22:32;99831.34;;;10.91;100.00
48652;BME280;34442;52.362;-1.302;2023-04-01T16:25:41;99834.41;;;10.95;100.00
48652;BME280;34442;52.362;-1.302;2023-04-01T16:30:48;99847.22;;;10.75;100.00
48652;BME280;34442;52.362;-1.302;2023-04-01T16:44:24;99855.44;;;10.80;100.00
48652;BME280;34442;52.362;-1.302;2023-04-01T16:47:07;99861.09;;;10.72;100.00
48652;BME280;34442;52.362;-1.302;2023-04-01T16:49:40;99868.34;;;10.71;100.00
48652;BME280;34442;52.362;-1.302;2023-04-01T16:54:50;99881.28;;;10.56;100.00
48652;BME280;34442;52.362;-1.302;2023-04-01T16:57:31;99881.72;;;10.53;100.00
48652;BME280;34442;52.362;-1.302;2023-04-01T17:00:27;99890.25;;;10.50;100.00
48652;BME280;34442;52.362;-1.302;2023-04-01T17:03:09;99896.63;;;10.49;100.00
48652;BME280;34442;52.362;-1.302;2023-04-01T17:14:12;99909.09;;;10.68;100.00
48652;BME280;34442;52.362;-1.302;2023-04-01T17:17:13;99908.38;;;10.54;100.00
48652;BME280;34442;52.362;-1.302;2023-04-01T17:20:04;99918.66;;;10.64;100.00
48652;BME280;34442;52.362;-1.302;2023-04-01T17:22:43;99919.97;;;10.55;100.00
48652;BME280;34442;52.362;-1.302;2023-04-01T17:33:54;99955.25;;;10.33;100.00
48652;BME280;34442;52.362;-1.302;2023-04-01T17:36:45;99957.28;;;10.38;100.00
48652;BME280;34442;52.362;-1.302;2023-04-01T17:39:17;99962.91;;;10.30;100.00
48652;BME280;34442;52.362;-1.302;2023-04-01T17:52:37;99971.63;;;10.12;100.00
48652;BME280;34442;52.362;-1.302;2023-04-01T18:03:41;99998.72;;;10.10;100.00
48652;BME280;34442;52.362;-1.302;2023-04-01T18:06:35;100004.31;;;10.09;100.00
48652;BME280;34442;52.362;-1.302;2023-04-01T18:09:38;100010.09;;;10.06;100.00
48652;BME280;34442;52.362;-1.302;2023-04-01T18:12:23;100014.88;;;9.97;100.00
48652;BME280;34442;52.362;-1.302;2023-04-01T18:17:56;100023.28;;;10.14;100.00
48652;BME280;34442;52.362;-1.302;2023-04-01T18:23:14;100042.78;;;9.96;100.00
48652;BME280;34442;52.362;-1.302;2023-04-01T18:25:48;100040.91;;;9.97;100.00
48652;BME280;34442;52.362;-1.302;2023-04-01T18:33:29;100072.97;;;9.72;100.00
48652;BME280;34442;52.362;-1.302;2023-04-01T18:36:07;100072.91;;;9.91;100.00
48652;BME280;34442;52.362;-1.302;2023-04-01T18:38:37;100076.00;;;9.95;100.00
48652;BME280;34442;52.362;-1.302;2023-04-01T18:41:15;100079.31;;;9.97;100.00
48652;BME280;34442;52.362;-1.302;2023-04-01T18:44:15;100086.97;;;10.00;100.00
48652;BME280;34442;52.362;-1.302;2023-04-01T18:46:55;100093.13;;;10.07;100.00
48652;BME280;34442;52.362;-1.302;2023-04-01T18:52:16;100101.63;;;9.91;100.00
48652;BME280;34442;52.362;-1.302;2023-04-01T18:57:51;100117.97;;;9.69;100.00
48652;BME280;34442;52.362;-1.302;2023-04-01T19:00:25;100129.75;;;9.55;100.00
48652;BME280;34442;52.362;-1.302;2023-04-01T19:03:06;100128.09;;;9.61;100.00
48652;BME280;34442;52.362;-1.302;2023-04-01T19:05:34;100142.34;;;9.48;100.00
48652;BME280;34442;52.362;-1.302;2023-04-01T19:08:34;100142.31;;;9.35;100.00
48652;BME280;34442;52.362;-1.302;2023-04-01T19:11:06;100144.78;;;9.36;100.00
48652;BME280;34442;52.362;-1.302;2023-04-01T19:14:24;100155.94;;;9.27;100.00
48652;BME280;34442;52.362;-1.302;2023-04-01T19:17:09;100160.63;;;9.11;100.00
48652;BME280;34442;52.362;-1.302;2023-04-01T19:19:49;100161.06;;;9.15;100.00
48652;BME280;34442;52.362;-1.302;2023-04-01T19:25:02;100173.03;;;9.26;100.00
48652;BME280;34442;52.362;-1.302;2023-04-01T19:27:35;100182.31;;;9.30;100.00
48652;BME280;34442;52.362;-1.302;2023-04-01T19:30:25;100179.47;;;9.31;100.00
48652;BME280;34442;52.362;-1.302;2023-04-01T19:35:45;100176.97;;;9.23;100.00
48652;BME280;34442;52.362;-1.302;2023-04-01T19:41:01;100186.06;;;9.42;100.00
48652;BME280;34442;52.362;-1.302;2023-04-01T19:46:17;100193.47;;;9.33;100.00
48652;BME280;34442;52.362;-1.302;2023-04-01T19:48:55;100205.66;;;9.36;100.00
48652;BME280;34442;52.362;-1.302;2023-04-01T20:02:55;100236.19;;;9.28;100.00
48652;BME280;34442;52.362;-1.302;2023-04-01T20:08:18;100239.72;;;9.35;100.00
48652;BME280;34442;52.362;-1.302;2023-04-01T20:16:16;100265.44;;;9.10;100.00
48652;BME280;34442;52.362;-1.302;2023-04-01T20:18:52;100271.78;;;9.09;100.00
48652;BME280;34442;52.362;-1.302;2023-04-01T20:21:36;100272.22;;;9.06;100.00
48652;BME280;34442;52.362;-1.302;2023-04-01T20:24:25;100279.03;;;9.08;100.00
48652;BME280;34442;52.362;-1.302;2023-04-01T20:27:19;100284.09;;;8.90;100.00
48652;BME280;34442;52.362;-1.302;2023-04-01T20:33:09;100293.06;;;9.10;100.00
48652;BME280;34442;52.362;-1.302;2023-04-01T20:39:08;100308.38;;;8.82;100.00
48652;BME280;34442;52.362;-1.302;2023-04-01T20:44:48;100311.22;;;8.74;100.00
48652;BME280;34442;52.362;-1.302;2023-04-01T20:52:45;100330.50;;;8.62;100.00
48652;BME280;34442;52.362;-1.302;2023-04-01T20:55:52;100344.84;;;8.48;100.00
48652;BME280;34442;52.362;-1.302;2023-04-01T20:58:38;100351.19;;;8.68;100.00
48652;BME280;34442;52.362;-1.302;2023-04-01T21:04:10;100358.94;;;8.63;100.00
48652;BME280;34442;52.362;-1.302;2023-04-01T21:12:04;100364.03;;;8.80;100.00
48652;BME280;34442;52.362;-1.302;2023-04-01T21:15:03;100367.94;;;8.77;100.00
48652;BME280;34442;52.362;-1.302;2023-04-01T21:20:28;100366.84;;;8.72;100.00
48652;BME280;34442;52.362;-1.302;2023-04-01T21:34:28;100384.81;;;8.50;100.00
48652;BME280;34442;52.362;-1.302;2023-04-01T21:40:23;100398.56;;;8.40;100.00
48652;BME280;34442;52.362;-1.302;2023-04-01T21:43:22;100407.91;;;8.51;100.00
48652;BME280;34442;52.362;-1.302;2023-04-01T21:48:51;100412.41;;;8.43;100.00
48652;BME280;34442;52.362;-1.302;2023-04-01T22:00:12;100425.84;;;8.50;100.00
48652;BME280;34442;52.362;-1.302;2023-04-01T22:03:03;100432.88;;;8.36;100.00
48652;BME280;34442;52.362;-1.302;2023-04-01T22:05:54;100425.03;;;8.35;100.00
48652;BME280;34442;52.362;-1.302;2023-04-01T22:11:01;100434.78;;;8.21;100.00
48652;BME280;34442;52.362;-1.302;2023-04-01T22:21:41;100449.78;;;8.01;100.00